La Verne, California
Current Conditions -  °F | °C
As of 2:53 PM on Tuesday 21 Oct 2014 (Local Time) from KONT Reporting Station
Few Clouds Few Clouds  
Wind Chill: 80°   Ceiling: Unl
Heat Index: 80°   Visibility: 10mi
Dew Point: 50°   Wind: 10mph
Humidity: 35%   Direction: 240°WSW
Pressure: 29.84"   Gusts: NA
Location:  34.11°N, 117.76°W
Report Text: KONT 212153Z 24009KT 10SM FEW180 27/10 A2984 RMK AO2 SLP094 T02670100
Loading
Personal Weather Stations






























Interactive Weather Map New forecast layout! Learn more

10-Day Weather Forecast

Advertisements
Track Severe Weather on mobile